sensor_id;sensor_type;location;lat;lon;timestamp;temperature;humidity
17774;DHT22;9011;33.236;-97.118;2023-08-17T16:27:43;34.90;80.20
17774;DHT22;9011;33.236;-97.118;2023-08-17T16:30:12;35.10;80.50
17774;DHT22;9011;33.236;-97.118;2023-08-17T16:32:40;35.30;80.00
17774;DHT22;9011;33.236;-97.118;2023-08-17T16:35:09;35.40;78.20
17774;DHT22;9011;33.236;-97.118;2023-08-17T16:37:37;35.60;78.30
17774;DHT22;9011;33.236;-97.118;2023-08-17T16:40:06;35.70;78.10
17774;DHT22;9011;33.236;-97.118;2023-08-17T16:42:35;35.80;78.10
17774;DHT22;9011;33.236;-97.118;2023-08-17T16:45:05;35.90;78.10
17774;DHT22;9011;33.236;-97.118;2023-08-17T16:47:34;36.00;78.30
17774;DHT22;9011;33.236;-97.118;2023-08-17T16:50:03;36.20;78.00
17774;DHT22;9011;33.236;-97.118;2023-08-17T16:52:31;36.30;77.50
17774;DHT22;9011;33.236;-97.118;2023-08-17T16:54:59;36.20;77.70
17774;DHT22;9011;33.236;-97.118;2023-08-17T16:57:27;36.40;77.10
17774;DHT22;9011;33.236;-97.118;2023-08-17T16:59:56;36.70;77.20
17774;DHT22;9011;33.236;-97.118;2023-08-17T17:02:26;36.80;76.50
17774;DHT22;9011;33.236;-97.118;2023-08-17T17:04:54;36.80;76.20
17774;DHT22;9011;33.236;-97.118;2023-08-17T17:07:22;37.00;77.20
17774;DHT22;9011;33.236;-97.118;2023-08-17T17:09:50;37.10;76.30
17774;DHT22;9011;33.236;-97.118;2023-08-17T17:12:19;37.40;76.00
17774;DHT22;9011;33.236;-97.118;2023-08-17T17:14:48;37.40;75.90
17774;DHT22;9011;33.236;-97.118;2023-08-17T17:17:16;37.40;75.50
17774;DHT22;9011;33.236;-97.118;2023-08-17T17:19:46;37.40;75.60
17774;DHT22;9011;33.236;-97.118;2023-08-17T17:22:14;37.60;75.40
17774;DHT22;9011;33.236;-97.118;2023-08-17T17:24:42;37.80;75.20
17774;DHT22;9011;33.236;-97.118;2023-08-17T17:27:11;37.80;74.90
17774;DHT22;9011;33.236;-97.118;2023-08-17T17:29:39;38.00;75.40
17774;DHT22;9011;33.236;-97.118;2023-08-17T17:32:07;38.20;74.00
17774;DHT22;9011;33.236;-97.118;2023-08-17T17:34:36;38.30;74.00
17774;DHT22;9011;33.236;-97.118;2023-08-17T17:37:06;38.50;74.10
17774;DHT22;9011;33.236;-97.118;2023-08-17T17:39:34;38.70;73.60
17774;DHT22;9011;33.236;-97.118;2023-08-17T17:42:02;38.40;73.70
17774;DHT22;9011;33.236;-97.118;2023-08-17T17:44:31;38.50;73.40
17774;DHT22;9011;33.236;-97.118;2023-08-17T17:46:59;38.80;72.90
17774;DHT22;9011;33.236;-97.118;2023-08-17T17:49:27;38.80;72.90
17774;DHT22;9011;33.236;-97.118;2023-08-17T17:51:55;38.80;73.50
17774;DHT22;9011;33.236;-97.118;2023-08-17T17:54:26;39.00;72.80
17774;DHT22;9011;33.236;-97.118;2023-08-17T17:56:54;39.10;72.70
17774;DHT22;9011;33.236;-97.118;2023-08-17T17:59:23;39.20;72.40
17774;DHT22;9011;33.236;-97.118;2023-08-17T18:01:51;39.20;72.70
17774;DHT22;9011;33.236;-97.118;2023-08-17T18:04:19;39.10;72.40
17774;DHT22;9011;33.236;-97.118;2023-08-17T18:06:48;39.20;72.60
17774;DHT22;9011;33.236;-97.118;2023-08-17T18:09:16;39.50;72.10
17774;DHT22;9011;33.236;-97.118;2023-08-17T18:11:46;39.50;71.60
17774;DHT22;9011;33.236;-97.118;2023-08-17T18:14:14;39.50;71.60
17774;DHT22;9011;33.236;-97.118;2023-08-17T18:16:44;39.70;71.80
17774;DHT22;9011;33.236;-97.118;2023-08-17T18:19:12;39.80;71.70
17774;DHT22;9011;33.236;-97.118;2023-08-17T18:21:41;39.90;71.90
17774;DHT22;9011;33.236;-97.118;2023-08-17T18:24:09;39.90;72.00
17774;DHT22;9011;33.236;-97.118;2023-08-17T18:26:37;39.90;71.50
17774;DHT22;9011;33.236;-97.118;2023-08-17T18:29:07;40.20;70.60
17774;DHT22;9011;33.236;-97.118;2023-08-17T18:31:35;40.20;69.80
17774;DHT22;9011;33.236;-97.118;2023-08-17T18:34:06;40.30;70.80
17774;DHT22;9011;33.236;-97.118;2023-08-17T18:36:35;40.60;70.70
17774;DHT22;9011;33.236;-97.118;2023-08-17T18:39:03;40.20;70.90
17774;DHT22;9011;33.236;-97.118;2023-08-17T18:41:32;40.40;70.00
17774;DHT22;9011;33.236;-97.118;2023-08-17T18:44:00;40.70;70.00
17774;DHT22;9011;33.236;-97.118;2023-08-17T18:46:30;40.90;69.30
17774;DHT22;9011;33.236;-97.118;2023-08-17T18:48:58;40.90;69.00
17774;DHT22;9011;33.236;-97.118;2023-08-17T18:51:26;41.00;69.00
17774;DHT22;9011;33.236;-97.118;2023-08-17T18:53:54;41.10;69.50
17774;DHT22;9011;33.236;-97.118;2023-08-17T18:56:23;41.20;68.80
17774;DHT22;9011;33.236;-97.118;2023-08-17T18:58:51;41.20;68.40
17774;DHT22;9011;33.236;-97.118;2023-08-17T19:01:21;41.30;69.00
17774;DHT22;9011;33.236;-97.118;2023-08-17T19:03:50;41.50;68.50
17774;DHT22;9011;33.236;-97.118;2023-08-17T19:06:19;41.00;69.50
17774;DHT22;9011;33.236;-97.118;2023-08-17T19:08:47;41.30;69.00
17774;DHT22;9011;33.236;-97.118;2023-08-17T19:11:15;41.30;69.70
17774;DHT22;9011;33.236;-97.118;2023-08-17T19:13:43;41.40;68.40
17774;DHT22;9011;33.236;-97.118;2023-08-17T19:16:11;41.80;67.90
17774;DHT22;9011;33.236;-97.118;2023-08-17T19:18:40;41.80;67.30
17774;DHT22;9011;33.236;-97.118;2023-08-17T19:21:10;41.80;67.30
17774;DHT22;9011;33.236;-97.118;2023-08-17T19:23:38;41.60;68.20
17774;DHT22;9011;33.236;-97.118;2023-08-17T19:26:06;41.90;68.50
17774;DHT22;9011;33.236;-97.118;2023-08-17T19:28:36;41.90;67.90
17774;DHT22;9011;33.236;-97.118;2023-08-17T19:31:04;42.10;67.00
17774;DHT22;9011;33.236;-97.118;2023-08-17T19:33:33;41.90;67.20
17774;DHT22;9011;33.236;-97.118;2023-08-17T19:36:01;42.10;66.90
17774;DHT22;9011;33.236;-97.118;2023-08-17T19:38:31;42.30;67.00
17774;DHT22;9011;33.236;-97.118;2023-08-17T19:40:59;42.60;66.50
17774;DHT22;9011;33.236;-97.118;2023-08-17T19:43:28;42.70;65.80
17774;DHT22;9011;33.236;-97.118;2023-08-17T19:45:56;42.60;66.00
17774;DHT22;9011;33.236;-97.118;2023-08-17T19:48:24;42.70;66.20
17774;DHT22;9011;33.236;-97.118;2023-08-17T19:50:52;42.20;66.20
17774;DHT22;9011;33.236;-97.118;2023-08-17T19:53:20;42.50;66.70
17774;DHT22;9011;33.236;-97.118;2023-08-17T19:55:50;42.90;65.70
17774;DHT22;9011;33.236;-97.118;2023-08-17T19:58:19;42.80;65.90
17774;DHT22;9011;33.236;-97.118;2023-08-17T20:00:47;42.70;66.90
17774;DHT22;9011;33.236;-97.118;2023-08-17T20:03:15;42.60;66.10
17774;DHT22;9011;33.236;-97.118;2023-08-17T20:05:44;42.80;65.20
17774;DHT22;9011;33.236;-97.118;2023-08-17T20:08:12;42.90;65.70
17774;DHT22;9011;33.236;-97.118;2023-08-17T20:10:40;43.20;65.30
17774;DHT22;9011;33.236;-97.118;2023-08-17T20:13:10;43.20;64.70
17774;DHT22;9011;33.236;-97.118;2023-08-17T20:15:38;43.40;64.70
17774;DHT22;9011;33.236;-97.118;2023-08-17T20:18:06;43.50;63.80
17774;DHT22;9011;33.236;-97.118;2023-08-17T20:20:37;43.50;64.20
17774;DHT22;9011;33.236;-97.118;2023-08-17T20:23:05;43.70;63.60
17774;DHT22;9011;33.236;-97.118;2023-08-17T20:25:33;44.00;63.90
17774;DHT22;9011;33.236;-97.118;2023-08-17T20:28:02;43.80;64.20
17774;DHT22;9011;33.236;-97.118;2023-08-17T20:30:32;43.90;63.70
17774;DHT22;9011;33.236;-97.118;2023-08-17T20:33:00;44.00;63.70
17774;DHT22;9011;33.236;-97.118;2023-08-17T20:35:29;44.20;63.00
17774;DHT22;9011;33.236;-97.118;2023-08-17T20:37:57;44.20;63.30
17774;DHT22;9011;33.236;-97.118;2023-08-17T20:40:26;44.20;63.20
17774;DHT22;9011;33.236;-97.118;2023-08-17T20:42:54;43.80;63.00
17774;DHT22;9011;33.236;-97.118;2023-08-17T20:45:22;43.90;62.50
17774;DHT22;9011;33.236;-97.118;2023-08-17T20:47:52;44.10;62.60
17774;DHT22;9011;33.236;-97.118;2023-08-17T20:50:21;44.10;62.70
17774;DHT22;9011;33.236;-97.118;2023-08-17T20:52:49;44.30;62.70
17774;DHT22;9011;33.236;-97.118;2023-08-17T20:55:17;44.50;61.90
17774;DHT22;9011;33.236;-97.118;2023-08-17T20:57:45;44.60;61.50
17774;DHT22;9011;33.236;-97.118;2023-08-17T21:00:14;44.40;61.70
17774;DHT22;9011;33.236;-97.118;2023-08-17T21:02:44;44.30;62.20
17774;DHT22;9011;33.236;-97.118;2023-08-17T21:05:14;44.10;62.60
17774;DHT22;9011;33.236;-97.118;2023-08-17T21:07:42;44.30;61.70
17774;DHT22;9011;33.236;-97.118;2023-08-17T21:10:11;44.40;61.20
17774;DHT22;9011;33.236;-97.118;2023-08-17T21:12:40;44.50;61.90
17774;DHT22;9011;33.236;-97.118;2023-08-17T21:15:09;44.10;61.70
17774;DHT22;9011;33.236;-97.118;2023-08-17T21:17:37;44.30;61.90
17774;DHT22;9011;33.236;-97.118;2023-08-17T21:20:07;44.50;61.60
17774;DHT22;9011;33.236;-97.118;2023-08-17T21:22:41;44.60;61.10
17774;DHT22;9011;33.236;-97.118;2023-08-17T21:25:10;44.80;60.70
17774;DHT22;9011;33.236;-97.118;2023-08-17T21:27:38;44.50;60.90
17774;DHT22;9011;33.236;-97.118;2023-08-17T21:30:07;44.70;60.50
17774;DHT22;9011;33.236;-97.118;2023-08-17T21:32:36;44.60;60.80
17774;DHT22;9011;33.236;-97.118;2023-08-17T21:35:04;44.40;61.00
17774;DHT22;9011;33.236;-97.118;2023-08-17T21:37:33;44.10;61.50
17774;DHT22;9011;33.236;-97.118;2023-08-17T21:40:03;44.30;62.10
17774;DHT22;9011;33.236;-97.118;2023-08-17T21:42:31;44.30;61.50
17774;DHT22;9011;33.236;-97.118;2023-08-17T21:45:00;44.50;60.70
17774;DHT22;9011;33.236;-97.118;2023-08-17T21:47:28;44.80;60.60
17774;DHT22;9011;33.236;-97.118;2023-08-17T21:49:56;44.80;60.20
17774;DHT22;9011;33.236;-97.118;2023-08-17T21:52:24;44.80;60.60
17774;DHT22;9011;33.236;-97.118;2023-08-17T21:54:53;44.90;61.00
17774;DHT22;9011;33.236;-97.118;2023-08-17T21:57:22;45.00;59.70
17774;DHT22;9011;33.236;-97.118;2023-08-17T21:59:51;45.10;59.80
17774;DHT22;9011;33.236;-97.118;2023-08-17T22:02:20;45.00;59.50
17774;DHT22;9011;33.236;-97.118;2023-08-17T22:04:48;45.20;59.50
17774;DHT22;9011;33.236;-97.118;2023-08-17T22:07:16;45.00;59.40
17774;DHT22;9011;33.236;-97.118;2023-08-17T22:09:44;44.50;59.60
17774;DHT22;9011;33.236;-97.118;2023-08-17T22:12:13;44.00;60.80
17774;DHT22;9011;33.236;-97.118;2023-08-17T22:14:42;44.20;60.00
17774;DHT22;9011;33.236;-97.118;2023-08-17T22:17:11;44.50;60.00
17774;DHT22;9011;33.236;-97.118;2023-08-17T22:19:39;44.60;59.90
17774;DHT22;9011;33.236;-97.118;2023-08-17T22:22:08;44.60;59.50
17774;DHT22;9011;33.236;-97.118;2023-08-17T22:24:36;44.60;59.50
17774;DHT22;9011;33.236;-97.118;2023-08-17T22:27:06;44.70;58.90
17774;DHT22;9011;33.236;-97.118;2023-08-17T22:29:34;44.60;59.10
17774;DHT22;9011;33.236;-97.118;2023-08-17T22:32:04;44.50;59.10
17774;DHT22;9011;33.236;-97.118;2023-08-17T22:34:33;44.50;59.30
17774;DHT22;9011;33.236;-97.118;2023-08-17T22:37:01;44.40;60.00
17774;DHT22;9011;33.236;-97.118;2023-08-17T22:39:30;44.40;59.10
17774;DHT22;9011;33.236;-97.118;2023-08-17T22:41:58;44.60;58.90
17774;DHT22;9011;33.236;-97.118;2023-08-17T22:44:26;44.70;58.80
17774;DHT22;9011;33.236;-97.118;2023-08-17T22:46:54;44.20;59.20
17774;DHT22;9011;33.236;-97.118;2023-08-17T22:49:24;44.60;59.60
17774;DHT22;9011;33.236;-97.118;2023-08-17T22:51:53;44.70;58.50
17774;DHT22;9011;33.236;-97.118;2023-08-17T22:54:21;44.80;58.30
17774;DHT22;9011;33.236;-97.118;2023-08-17T22:56:49;44.40;58.70
17774;DHT22;9011;33.236;-97.118;2023-08-17T22:59:17;44.20;58.40
17774;DHT22;9011;33.236;-97.118;2023-08-17T23:01:46;44.30;58.70
17774;DHT22;9011;33.236;-97.118;2023-08-17T23:04:14;44.10;58.50
17774;DHT22;9011;33.236;-97.118;2023-08-17T23:06:44;44.10;58.30
17774;DHT22;9011;33.236;-97.118;2023-08-17T23:09:12;44.30;58.10
17774;DHT22;9011;33.236;-97.118;2023-08-17T23:11:40;44.10;58.20
17774;DHT22;9011;33.236;-97.118;2023-08-17T23:14:09;43.70;59.60
17774;DHT22;9011;33.236;-97.118;2023-08-17T23:16:37;43.50;59.40
17774;DHT22;9011;33.236;-97.118;2023-08-17T23:19:05;43.60;59.00
17774;DHT22;9011;33.236;-97.118;2023-08-17T23:21:34;43.80;58.40
17774;DHT22;9011;33.236;-97.118;2023-08-17T23:24:04;43.90;58.10
17774;DHT22;9011;33.236;-97.118;2023-08-17T23:26:32;44.00;57.90
17774;DHT22;9011;33.236;-97.118;2023-08-17T23:29:01;43.80;57.80
17774;DHT22;9011;33.236;-97.118;2023-08-17T23:31:29;44.00;58.20
17774;DHT22;9011;33.236;-97.118;2023-08-17T23:33:57;43.60;59.70
17774;DHT22;9011;33.236;-97.118;2023-08-17T23:36:26;43.50;59.10
17774;DHT22;9011;33.236;-97.118;2023-08-17T23:38:54;43.70;58.40
17774;DHT22;9011;33.236;-97.118;2023-08-17T23:41:24;43.40;58.80
17774;DHT22;9011;33.236;-97.118;2023-08-17T23:43:54;43.20;59.10
17774;DHT22;9011;33.236;-97.118;2023-08-17T23:46:22;43.40;58.60
17774;DHT22;9011;33.236;-97.118;2023-08-17T23:48:53;43.50;58.40
17774;DHT22;9011;33.236;-97.118;2023-08-17T23:51:21;43.60;58.90
17774;DHT22;9011;33.236;-97.118;2023-08-17T23:53:49;43.60;58.50
17774;DHT22;9011;33.236;-97.118;2023-08-17T23:56:18;43.40;58.70
17774;DHT22;9011;33.236;-97.118;2023-08-17T23:58:48;43.50;58.40
